createdAt,value
2023-06-11T00:02:25.781Z,7.93
2023-06-11T00:07:29.434Z,8.57
2023-06-11T00:12:33.938Z,8.70
2023-06-11T00:17:39.824Z,8.50
2023-06-11T00:22:44.424Z,8.30
2023-06-11T00:27:47.261Z,8.47
2023-06-11T00:32:51.918Z,7.63
2023-06-11T00:37:56.174Z,8.82
2023-06-11T00:42:59.042Z,8.30
2023-06-11T00:48:03.438Z,9.03
2023-06-11T00:53:06.434Z,9.00
2023-06-11T00:58:17.592Z,9.10
2023-06-11T01:03:28.182Z,8.30
2023-06-11T01:08:34.223Z,8.75
2023-06-11T01:13:38.589Z,8.33
2023-06-11T01:18:50.056Z,8.90
2023-06-11T01:24:01.462Z,9.00
2023-06-11T01:29:10.452Z,9.30
2023-06-11T01:34:15.470Z,9.93
2023-06-11T01:39:20.204Z,9.50
2023-06-11T01:44:40.755Z,9.93
2023-06-11T01:49:43.967Z,10.10
2023-06-11T01:54:46.773Z,9.70
2023-06-11T01:59:51.529Z,8.93
2023-06-11T02:04:54.319Z,9.17
2023-06-11T02:09:57.092Z,9.73
2023-06-11T02:15:01.245Z,9.93
2023-06-11T02:20:07.077Z,9.90
2023-06-11T02:25:12.819Z,11.60
2023-06-11T02:30:17.936Z,10.80
2023-06-11T02:35:20.721Z,10.80
2023-06-11T02:40:24.269Z,10.47
2023-06-11T02:45:28.428Z,12.73
2023-06-11T02:50:31.233Z,11.00
2023-06-11T02:55:58.305Z,10.63
2023-06-11T03:01:02.651Z,11.37
2023-06-11T03:06:05.562Z,11.03
2023-06-11T03:11:09.162Z,10.70
2023-06-11T03:16:16.761Z,11.17
2023-06-11T03:21:19.869Z,10.20
2023-06-11T03:26:22.691Z,11.27
2023-06-11T03:31:28.209Z,11.35
2023-06-11T03:36:31.850Z,11.43
2023-06-11T03:41:38.498Z,11.95
2023-06-11T03:46:43.573Z,11.20
2023-06-11T03:51:49.706Z,11.53
2023-06-11T03:56:52.715Z,10.43
2023-06-11T04:01:57.026Z,10.37
2023-06-11T04:07:03.125Z,10.50
2023-06-11T04:12:11.009Z,10.20
2023-06-11T04:17:36.150Z,10.77
2023-06-11T04:23:00.383Z,9.53
2023-06-11T04:28:24.287Z,10.07
2023-06-11T04:33:48.966Z,8.83
2023-06-11T04:39:12.026Z,9.17
2023-06-11T04:44:37.586Z,8.37
2023-06-11T04:50:04.370Z,7.83
2023-06-11T04:55:28.158Z,8.40
2023-06-11T05:00:38.916Z,8.70
2023-06-11T05:05:43.693Z,8.20
2023-06-11T05:10:49.077Z,8.67
2023-06-11T05:15:59.033Z,8.30
2023-06-11T05:21:33.261Z,9.03
2023-06-11T05:26:46.950Z,8.70
2023-06-11T05:31:50.313Z,7.90
2023-06-11T05:36:54.985Z,17.20
2023-06-11T05:42:00.298Z,9.33
2023-06-11T05:47:10.128Z,7.57
2023-06-11T05:52:22.432Z,8.07
2023-06-11T05:57:28.666Z,7.47
2023-06-11T06:02:36.248Z,8.00
2023-06-11T06:07:40.653Z,7.80
2023-06-11T06:12:43.505Z,6.97
2023-06-11T06:17:48.083Z,7.50
2023-06-11T06:22:59.396Z,9.10
2023-06-11T06:28:02.684Z,7.03
2023-06-11T06:33:06.583Z,6.90
2023-06-11T06:38:11.319Z,6.50
2023-06-11T06:43:16.230Z,6.00
2023-06-11T06:48:20.611Z,6.07
2023-06-11T06:53:24.908Z,6.87
2023-06-11T06:58:28.117Z,6.93
2023-06-11T07:03:31.275Z,6.10
2023-06-11T07:08:36.374Z,6.40
2023-06-11T07:13:39.679Z,6.00
2023-06-11T07:18:43.658Z,5.70
2023-06-11T07:23:47.814Z,5.80
2023-06-11T07:28:51.650Z,5.50
2023-06-11T07:33:55.195Z,5.93
2023-06-11T07:39:02.199Z,5.60
2023-06-11T07:44:05.342Z,5.60
2023-06-11T07:49:09.637Z,5.40
2023-06-11T07:54:15.564Z,5.40
2023-06-11T07:59:18.759Z,5.90
2023-06-11T08:04:21.876Z,5.20
2023-06-11T08:09:28.329Z,7.90
2023-06-11T08:14:34.228Z,6.10
2023-06-11T08:19:37.056Z,5.60
2023-06-11T08:24:41.728Z,6.20
2023-06-11T08:29:49.911Z,4.87
2023-06-11T08:34:53.669Z,4.60
2023-06-11T08:39:57.806Z,4.60
2023-06-11T08:45:00.847Z,4.90
2023-06-11T08:50:05.326Z,4.80
2023-06-11T08:55:10.934Z,5.10
2023-06-11T09:00:15.893Z,8.70
2023-06-11T09:05:18.914Z,5.73
2023-06-11T09:10:24.080Z,4.60
2023-06-11T09:15:33.273Z,5.37
2023-06-11T09:20:36.936Z,13.00
2023-06-11T09:25:42.662Z,4.67
2023-06-11T09:30:54.960Z,5.80
2023-06-11T09:35:57.782Z,5.17
2023-06-11T09:41:06.157Z,6.07
2023-06-11T09:46:10.118Z,5.10
2023-06-11T09:51:24.848Z,5.30
2023-06-11T09:56:30.080Z,4.60
2023-06-11T10:01:34.575Z,5.03
2023-06-11T10:06:42.107Z,4.63
2023-06-11T10:11:47.689Z,4.73
2023-06-11T10:16:52.025Z,4.67
2023-06-11T10:22:03.370Z,4.37
2023-06-11T10:27:09.859Z,10.30
2023-06-11T10:32:17.369Z,4.60
2023-06-11T10:37:30.410Z,4.97
2023-06-11T10:42:39.359Z,4.53
2023-06-11T10:47:44.427Z,5.03
2023-06-11T10:52:51.598Z,4.93
2023-06-11T10:57:56.284Z,4.90
2023-06-11T11:03:00.729Z,4.30
2023-06-11T11:08:03.875Z,5.20
2023-06-11T11:13:07.954Z,12.80
2023-06-11T11:18:10.827Z,6.15
2023-06-11T11:23:13.738Z,4.70
2023-06-11T11:28:18.913Z,5.63
2023-06-11T11:33:22.151Z,4.60
2023-06-11T11:38:25.121Z,5.20
2023-06-11T11:43:40.319Z,8.13
2023-06-11T11:48:44.327Z,5.60
2023-06-11T11:53:48.283Z,5.00
2023-06-11T11:58:53.707Z,4.63
2023-06-11T12:04:02.029Z,5.03
2023-06-11T12:09:06.617Z,4.93
2023-06-11T12:14:11.032Z,6.37
2023-06-11T12:19:23.212Z,5.13
2023-06-11T12:24:27.978Z,5.10
2023-06-11T12:29:32.621Z,5.10
2023-06-11T12:34:35.372Z,5.17
2023-06-11T12:39:38.352Z,5.33
2023-06-11T12:44:43.482Z,5.90
2023-06-11T12:49:46.621Z,5.70
2023-06-11T12:54:49.415Z,5.20
2023-06-11T12:59:53.524Z,5.53
2023-06-11T13:04:58.483Z,5.20
2023-06-11T13:10:01.756Z,5.47
2023-06-11T13:15:08.468Z,5.23
2023-06-11T13:20:12.432Z,5.20
2023-06-11T13:25:16.758Z,6.00
2023-06-11T13:30:21.376Z,5.90
2023-06-11T13:35:24.303Z,5.27
2023-06-11T13:40:27.157Z,4.80
2023-06-11T13:45:31.354Z,4.90
2023-06-11T13:50:34.594Z,7.77
2023-06-11T13:55:37.534Z,5.00
2023-06-11T14:00:42.292Z,6.00
2023-06-11T14:05:45.143Z,5.30
2023-06-11T14:10:54.008Z,5.00
2023-06-11T14:15:58.803Z,5.57
2023-06-11T14:21:01.687Z,5.63
2023-06-11T14:26:04.448Z,6.80
2023-06-11T14:31:08.492Z,4.97
2023-06-11T14:36:11.515Z,5.50
2023-06-11T14:41:14.460Z,5.93
2023-06-11T14:46:18.952Z,5.63
2023-06-11T14:51:24.082Z,5.60
2023-06-11T14:56:28.186Z,5.47
2023-06-11T15:01:32.640Z,6.13
2023-06-11T15:06:35.520Z,6.00
2023-06-11T15:11:38.406Z,5.77
2023-06-11T15:16:45.363Z,5.70
2023-06-11T15:21:48.363Z,5.50
2023-06-11T15:26:51.137Z,5.20
2023-06-11T15:31:57.970Z,5.57
2023-06-11T15:37:01.144Z,5.90
2023-06-11T15:42:04.308Z,5.57
2023-06-11T15:47:08.656Z,6.97
2023-06-11T15:52:11.355Z,8.47
2023-06-11T15:57:14.024Z,6.10
2023-06-11T16:02:18.290Z,6.10
2023-06-11T16:07:23.947Z,5.83
2023-06-11T16:12:26.636Z,6.23
2023-06-11T16:17:32.207Z,6.37
2023-06-11T16:22:41.153Z,5.63
2023-06-11T16:27:45.550Z,9.53
2023-06-11T16:32:49.591Z,6.60
2023-06-11T16:37:52.327Z,6.43
2023-06-11T16:42:55.207Z,7.17
2023-06-11T16:48:01.429Z,6.87
2023-06-11T16:53:09.802Z,5.78
2023-06-11T16:58:12.646Z,5.90
2023-06-11T17:03:20.054Z,9.50
2023-06-11T17:08:24.945Z,6.50
2023-06-11T17:13:28.102Z,5.90
2023-06-11T17:18:37.223Z,7.93
2023-06-11T17:29:20.032Z,9.47
2023-06-11T17:34:45.874Z,5.70
2023-06-11T17:39:57.183Z,6.70
2023-06-11T17:44:59.995Z,7.07
2023-06-11T17:50:07.452Z,5.30
2023-06-11T17:55:14.538Z,6.00
2023-06-11T18:00:18.738Z,8.30
2023-06-11T18:05:25.217Z,7.43
2023-06-11T18:10:28.189Z,6.57
2023-06-11T18:15:34.557Z,6.50
2023-06-11T18:20:39.635Z,5.77
2023-06-11T18:25:42.335Z,5.43
2023-06-11T18:30:45.476Z,5.50
2023-06-11T18:35:49.704Z,6.13
2023-06-11T18:40:52.613Z,6.53
2023-06-11T18:45:55.956Z,5.53
2023-06-11T21:56:10.488Z,5.15
2023-06-11T22:01:13.184Z,5.40
2023-06-11T22:06:15.966Z,4.67
2023-06-11T22:11:20.375Z,5.20
2023-06-11T22:16:23.864Z,5.43
2023-06-11T22:21:26.855Z,4.93
2023-06-11T22:26:31.412Z,5.83
2023-06-11T22:31:34.731Z,5.67
2023-06-11T22:36:37.611Z,6.50
2023-06-11T22:41:41.875Z,6.20
2023-06-11T22:46:44.571Z,6.30
2023-06-11T22:51:48.101Z,5.95
2023-06-11T22:56:52.848Z,7.00
2023-06-11T23:01:55.801Z,6.73
2023-06-11T23:06:58.986Z,6.27
2023-06-11T23:12:03.217Z,5.97
2023-06-11T23:17:10.441Z,5.70
2023-06-11T23:22:13.379Z,6.33
2023-06-11T23:27:18.488Z,6.00
2023-06-11T23:32:21.281Z,6.50
2023-06-11T23:37:24.077Z,5.57
2023-06-11T23:42:28.072Z,6.00
2023-06-11T23:47:32.482Z,5.90
2023-06-11T23:52:35.293Z,6.57
2023-06-11T23:57:40.341Z,5.07
